.
WxDataArchive / Data Records for 2011-01-07
2011-01-06 January 2011 2011-01-08

Data Records for Friday, 07 January 2011

Time	Temp	Chill	HIndex	Humid	Dewpt	 Wind 	HiWind	WindDir	Rain 	Barom 
-----	----	-----	------	-----	-----	------	------	-------	-----	----- 
00:00	20.5	20.5	20.5	69	12.0	1	4	270	0.00	29.571 
00:05	20.3	20.3	20.3	69	11.8	1	4	248	0.00	29.571 
00:10	20.2	20.2	20.2	69	11.7	0	3	248	0.00	29.571 
00:15	20.0	20.0	20.0	69	11.5	1	3	248	0.00	29.571 
00:20	19.9	19.9	19.9	69	11.4	1	4	270	0.00	29.571 
00:25	19.7	19.7	19.7	69	11.2	2	5	248	0.00	29.571 
00:30	19.7	19.7	19.7	69	11.2	1	3	248	0.00	29.567 
00:35	19.5	19.5	19.5	69	11.0	1	3	248	0.00	29.567 
00:40	19.5	19.5	19.5	69	11.0	1	3	270	0.00	29.567 
00:45	19.5	19.5	19.5	69	11.0	1	5	248	0.00	29.568 
00:50	19.4	19.4	19.4	69	10.9	2	4	225	0.00	29.568 
00:55	19.4	19.4	19.4	68	10.6	2	5	270	0.00	29.568 
01:00	19.4	19.4	19.4	68	10.6	2	4	248	0.00	29.569 
01:05	19.4	19.4	19.4	68	10.6	2	4	270	0.00	29.569 
01:10	19.4	19.4	19.4	68	10.6	2	4	248	0.00	29.569 
01:15	19.2	19.2	19.2	67	10.1	2	5	248	0.00	29.574 
01:20	19.2	19.2	19.2	67	10.1	2	4	248	0.00	29.574 
01:25	19.2	19.2	19.2	66	9.7	2	6	248	0.00	29.574 
01:30	19.2	19.2	19.2	66	9.7	2	6	270	0.00	29.571 
01:35	19.1	19.1	19.1	65	9.3	2	4	248	0.00	29.571 
01:40	18.9	18.9	18.9	65	9.1	1	3	248	0.00	29.571 
01:45	18.8	18.8	18.8	65	9.0	2	5	248	0.00	29.569 
01:50	18.6	18.6	18.6	65	8.8	1	6	248	0.00	29.569 
01:55	18.6	18.6	18.6	64	8.5	1	4	248	0.00	29.569 
02:00	18.4	18.4	18.4	65	8.6	1	3	248	0.00	29.566 
02:05	18.4	18.4	18.4	64	8.3	2	4	248	0.00	29.566 
02:10	18.3	18.3	18.3	64	8.2	2	4	248	0.00	29.566 
02:15	18.1	18.1	18.1	64	8.0	1	4	248	0.00	29.560 
02:20	18.1	18.1	18.1	64	8.0	2	4	248	0.00	29.560 
02:25	18.0	18.0	18.0	64	7.9	1	6	248	0.00	29.560 
02:30	17.8	17.8	17.8	64	7.7	1	4	248	0.00	29.560 
02:35	17.7	17.7	17.7	64	7.6	1	4	248	0.00	29.560 
02:40	17.5	17.5	17.5	64	7.4	1	3	225	0.00	29.560 
02:45	17.3	17.3	17.3	65	7.6	1	3	225	0.00	29.560 
02:50	17.2	17.2	17.2	65	7.5	1	2	225	0.00	29.560 
02:55	17.0	17.0	17.0	65	7.3	1	2	225	0.00	29.560 
03:00	17.0	17.0	17.0	65	7.3	1	3	248	0.00	29.555 
03:05	16.9	16.9	16.9	65	7.2	1	2	248	0.00	29.555 
03:10	16.9	16.9	16.9	65	7.2	1	2	248	0.00	29.555 
03:15	16.7	16.7	16.7	65	7.0	1	3	248	0.00	29.549 
03:20	16.7	16.7	16.7	65	7.0	1	2	248	0.00	29.549 
03:25	16.5	16.5	16.5	65	6.8	1	2	248	0.00	29.549 
03:30	16.4	16.4	16.4	65	6.7	0	3	248	0.00	29.539 
03:35	16.4	16.4	16.4	66	7.1	0	2	248	0.00	29.539 
03:40	16.4	16.4	16.4	66	7.1	1	3	248	0.00	29.539 
03:45	16.4	16.4	16.4	66	7.1	0	2	248	0.00	29.533 
03:50	16.5	16.5	16.5	66	7.2	1	3	248	0.00	29.533 
03:55	16.7	16.7	16.7	66	7.3	0	2	248	0.00	29.533 
04:00	16.7	16.7	16.7	66	7.3	1	4	248	0.00	29.523 
04:05	16.9	16.9	16.9	66	7.5	1	4	248	0.00	29.523 
04:10	16.9	16.9	16.9	66	7.5	0	2	248	0.00	29.523 
04:15	17.0	17.0	17.0	66	7.6	0	2	248	0.00	29.524 
04:20	17.0	17.0	17.0	65	7.3	0	2	248	0.00	29.524 
04:25	16.9	16.9	16.9	66	7.5	0	2	248	0.00	29.524 
04:30	16.9	16.9	16.9	65	7.2	1	3	248	0.00	29.519 
04:35	16.9	16.9	16.9	65	7.2	0	2	248	0.00	29.519 
04:40	16.7	16.7	16.7	65	7.0	0	2	248	0.00	29.519 
04:45	16.5	16.5	16.5	66	7.2	1	2	248	0.00	29.512 
04:50	16.4	16.4	16.4	66	7.1	0	3	248	0.00	29.512 
04:55	16.2	16.2	16.2	66	6.9	0	2	248	0.00	29.512 
05:00	16.2	16.2	16.2	66	6.9	0	2	248	0.00	29.510 
05:05	16.1	16.1	16.1	66	6.8	0	2	248	0.00	29.510 
05:10	15.9	15.9	15.9	66	6.6	1	2	248	0.00	29.510 
05:15	15.9	15.9	15.9	66	6.6	1	3	248	0.00	29.509 
05:20	15.9	15.9	15.9	66	6.6	1	3	248	0.00	29.509 
05:25	15.7	15.7	15.7	66	6.4	1	3	248	0.00	29.509 
05:30	15.7	15.7	15.7	67	6.7	1	4	248	0.00	29.503 
05:35	15.6	15.6	15.6	67	6.6	0	2	248	0.00	29.503 
05:40	15.6	15.6	15.6	67	6.6	1	3	248	0.00	29.503 
05:45	15.4	15.4	15.4	67	6.4	0	3	248	0.00	29.502 
05:50	15.4	15.4	15.4	68	6.8	0	3	248	0.00	29.502 
05:55	15.2	15.2	15.2	68	6.6	1	3	248	0.00	29.502 
06:00	15.1	15.1	15.1	68	6.5	1	3	248	0.00	29.498 
06:05	15.1	15.1	15.1	68	6.5	1	3	248	0.00	29.498 
06:10	14.9	14.9	14.9	69	6.6	0	2	248	0.00	29.498 
06:15	14.8	14.8	14.8	69	6.5	0	2	248	0.00	29.497 
06:20	14.8	14.8	14.8	69	6.5	0	2	248	0.00	29.497 
06:25	14.8	14.8	14.8	70	6.8	1	3	248	0.00	29.497 
06:30	14.8	14.8	14.8	70	6.8	0	2	248	0.00	29.495 
06:35	14.8	14.8	14.8	70	6.8	1	3	248	0.00	29.495 
06:40	14.8	14.8	14.8	71	7.1	0	1	248	0.00	29.495 
06:45	14.8	14.8	14.8	71	7.1	1	3	248	0.00	29.494 
06:50	14.8	14.8	14.8	71	7.1	1	4	248	0.00	29.494 
06:55	14.8	14.8	14.8	71	7.1	1	5	248	0.00	29.494 
07:00	14.8	14.8	14.8	72	7.4	1	4	248	0.00	29.496 
07:05	14.6	14.6	14.6	72	7.2	1	4	248	0.00	29.496 
07:10	14.6	14.6	14.6	72	7.2	0	3	248	0.00	29.496 
07:15	14.6	14.6	14.6	73	7.5	1	2	248	0.00	29.496 
07:20	14.6	14.6	14.6	73	7.5	1	2	248	0.00	29.496 
07:25	14.6	14.6	14.6	73	7.5	0	1	248	0.00	29.496 
07:30	14.6	14.6	14.6	73	7.5	0	2	248	0.00	29.495 
07:35	14.6	14.6	14.6	74	7.8	0	3	248	0.00	29.495 
07:40	14.8	14.8	14.8	74	8.0	0	2	248	0.00	29.495 
07:45	14.8	14.8	14.8	74	8.0	1	3	248	0.00	29.491 
07:50	14.9	14.9	14.9	74	8.1	1	3	248	0.00	29.491 
07:55	14.9	14.9	14.9	74	8.1	1	3	225	0.00	29.491 
08:00	15.1	15.1	15.1	74	8.3	1	3	225	0.00	29.492 
08:05	15.1	15.1	15.1	74	8.3	1	2	225	0.00	29.492 
08:10	15.2	15.2	15.2	74	8.4	1	4	225	0.00	29.492 
08:15	15.2	15.2	15.2	74	8.4	1	4	248	0.00	29.490 
08:20	15.4	15.4	15.4	74	8.6	1	3	248	0.00	29.490 
08:25	15.4	15.4	15.4	74	8.6	1	5	225	0.00	29.490 
08:30	15.6	15.6	15.6	74	8.8	1	3	292	0.00	29.481 
08:35	15.6	15.6	15.6	74	8.8	1	3	248	0.00	29.481 
08:40	15.7	15.7	15.7	74	8.9	1	3	248	0.00	29.481 
08:45	15.9	15.9	15.9	74	9.1	1	3	248	0.00	29.480 
08:50	15.9	15.9	15.9	74	9.1	1	4	248	0.00	29.480 
08:55	16.1	16.1	16.1	74	9.3	2	4	248	0.00	29.480 
09:00	16.2	16.2	16.2	74	9.4	1	3	248	0.00	29.480 
09:05	16.4	16.4	16.4	74	9.6	1	5	248	0.00	29.480 
09:10	16.5	16.5	16.5	74	9.7	1	5	270	0.00	29.480 
09:15	16.5	16.5	16.5	74	9.7	1	6	270	0.00	29.475 
09:20	16.7	16.7	16.7	74	9.9	0	3	270	0.00	29.475 
09:25	16.9	16.9	16.9	74	10.1	1	3	225	0.00	29.475 
09:30	17.0	17.0	17.0	75	10.5	1	3	225	0.00	29.477 
09:35	17.2	17.2	17.2	75	10.7	1	5	270	0.00	29.477 
09:40	17.2	17.2	17.2	75	10.7	1	4	270	0.00	29.477 
09:45	17.3	17.3	17.3	76	11.1	1	3	270	0.00	29.480 
09:50	17.5	17.5	17.5	76	11.3	1	4	248	0.00	29.480 
09:55	17.7	17.7	17.7	76	11.4	1	3	248	0.00	29.480 
10:00	17.7	17.7	17.7	76	11.4	1	3	248	0.00	29.478 
10:05	17.7	17.7	17.7	76	11.4	1	4	270	0.00	29.478 
10:10	17.7	17.7	17.7	76	11.4	1	3	248	0.00	29.478 
10:15	17.8	17.8	17.8	76	11.5	1	4	248	0.00	29.476 
10:20	17.7	17.7	17.7	77	11.7	1	3	248	0.00	29.476 
10:25	17.8	17.8	17.8	77	11.8	1	4	248	0.00	29.476 
10:30	18.0	18.0	18.0	77	12.0	1	3	248	0.00	29.475 
10:35	18.1	18.1	18.1	77	12.1	1	3	248	0.00	29.475 
10:40	18.3	18.3	18.3	77	12.3	1	5	248	0.00	29.475 
10:45	18.4	18.4	18.4	76	12.1	2	4	248	0.00	29.472 
10:50	18.4	18.4	18.4	76	12.1	1	5	248	0.00	29.472 
10:55	18.4	18.4	18.4	76	12.1	2	5	248	0.00	29.472 
11:00	18.8	18.8	18.8	76	12.5	1	3	248	0.00	29.468 
11:05	18.8	18.8	18.8	76	12.5	1	5	248	0.00	29.468 
11:10	18.9	18.9	18.9	76	12.6	1	4	248	0.00	29.468 
11:15	18.8	18.8	18.8	76	12.5	2	4	270	0.00	29.466 
11:20	18.8	18.8	18.8	76	12.5	2	4	248	0.00	29.466 
11:25	18.8	18.8	18.8	76	12.5	1	5	270	0.00	29.466 
11:30	18.9	18.9	18.9	76	12.6	2	4	248	0.00	29.461 
11:35	19.2	19.2	19.2	76	12.9	1	3	225	0.00	29.461 
11:40	19.5	19.5	19.5	76	13.2	1	3	225	0.00	29.461 
11:45	19.5	19.5	19.5	74	12.6	2	5	248	0.00	29.452 
11:50	19.5	19.5	19.5	73	12.3	2	5	270	0.00	29.452 
11:55	19.5	19.5	19.5	73	12.3	2	4	248	0.00	29.452 
12:00	19.7	19.7	19.7	74	12.8	1	3	248	0.00	29.445 
12:05	19.7	19.7	19.7	74	12.8	1	3	248	0.00	29.445 
12:10	19.9	19.9	19.9	73	12.7	1	4	248	0.00	29.445 
12:15	20.0	20.0	20.0	74	13.1	1	4	202	0.00	29.437 
12:20	20.0	20.0	20.0	73	12.8	2	6	248	0.00	29.437 
12:25	20.2	20.2	20.2	73	13.0	2	5	248	0.00	29.437 
12:30	20.3	20.3	20.3	73	13.1	1	3	270	0.00	29.433 
12:35	20.3	20.3	20.3	72	12.7	1	3	270	0.00	29.433 
12:40	20.3	20.3	20.3	72	12.7	1	3	248	0.00	29.433 
12:45	20.3	20.3	20.3	72	12.7	2	5	248	0.00	29.428 
12:50	20.5	20.5	20.5	72	12.9	1	3	248	0.00	29.428 
12:55	20.6	20.6	20.6	73	13.3	1	4	248	0.00	29.428 
13:00	20.5	20.5	20.5	72	12.9	2	4	248	0.00	29.417 
13:05	20.8	20.8	20.8	73	13.5	1	3	248	0.00	29.417 
13:10	20.8	20.8	20.8	72	13.2	1	3	248	0.00	29.417 
13:15	21.0	21.0	21.0	71	13.1	2	6	248	0.00	29.416 
13:20	21.1	21.1	21.1	71	13.2	1	4	248	0.00	29.416 
13:25	21.1	21.1	21.1	71	13.2	2	4	248	0.00	29.416 
13:30	21.1	21.1	21.1	70	12.9	1	3	225	0.00	29.408 
13:35	21.3	21.3	21.3	71	13.4	1	3	248	0.00	29.408 
13:40	21.3	21.3	21.3	70	13.1	2	5	248	0.00	29.408 
13:45	21.4	21.4	21.4	70	13.2	1	3	248	0.00	29.403 
13:50	21.4	21.4	21.4	69	12.8	2	4	248	0.00	29.403 
13:55	21.3	21.3	21.3	69	12.7	1	3	248	0.00	29.403 
14:00	21.3	21.3	21.3	69	12.7	1	3	270	0.00	29.402 
14:05	21.4	21.4	21.4	69	12.8	1	4	270	0.00	29.402 
14:10	21.6	21.6	21.6	69	13.0	1	5	270	0.00	29.402 
14:15	21.8	21.8	21.8	69	13.2	1	3	270	0.00	29.402 
14:20	21.9	21.9	21.9	69	13.3	1	3	270	0.00	29.402 
14:25	21.9	21.9	21.9	69	13.3	1	3	270	0.00	29.402 
14:30	21.8	21.8	21.8	68	12.9	2	3	270	0.00	29.402 
14:35	21.6	21.6	21.6	68	12.7	2	3	248	0.00	29.402 
14:40	21.6	21.6	21.6	68	12.7	1	3	270	0.00	29.402 
14:45	21.6	21.6	21.6	69	13.0	1	3	248	0.00	29.401 
14:50	21.8	21.8	21.8	68	12.9	1	3	248	0.00	29.401 
14:55	21.8	21.8	21.8	68	12.9	2	5	248	0.00	29.401 
15:00	21.8	21.8	21.8	69	13.2	1	3	248	0.00	29.400 
15:05	21.8	21.8	21.8	69	13.2	1	6	248	0.00	29.400 
15:10	21.6	21.6	21.6	69	13.0	1	4	248	0.00	29.400 
15:15	21.6	21.6	21.6	69	13.0	1	3	338	0.00	29.407 
15:20	21.6	21.6	21.6	69	13.0	2	4	225	0.00	29.407 
15:25	21.6	21.6	21.6	69	13.0	1	4	292	0.00	29.407 
15:30	21.6	21.6	21.6	70	13.4	1	2	292	0.00	29.400 
15:35	21.9	21.9	21.9	70	13.6	1	5	248	0.00	29.400 
15:40	21.8	21.8	21.8	69	13.2	2	5	248	0.00	29.400 
15:45	21.8	21.8	21.8	69	13.2	1	3	248	0.00	29.403 
15:50	22.1	22.1	22.1	69	13.5	1	3	248	0.00	29.403 
15:55	22.1	22.1	22.1	69	13.5	1	3	248	0.00	29.403 
16:00	21.8	21.8	21.8	69	13.2	1	4	248	0.00	29.412 
16:05	21.6	21.6	21.6	69	13.0	1	3	248	0.00	29.412 
16:10	21.4	21.4	21.4	68	12.5	1	4	248	0.00	29.412 
16:15	21.3	21.3	21.3	68	12.4	2	4	248	0.00	29.418 
16:20	21.3	21.3	21.3	68	12.4	1	2	315	0.00	29.418 
16:25	21.4	21.4	21.4	68	12.5	1	4	225	0.00	29.418 
16:30	21.3	21.3	21.3	67	12.1	1	3	338	0.00	29.421 
16:35	21.3	21.3	21.3	68	12.4	1	4	292	0.00	29.421 
16:40	21.3	21.3	21.3	68	12.4	1	4	248	0.00	29.421 
16:45	21.3	21.3	21.3	68	12.4	2	3	248	0.00	29.424 
16:50	21.1	21.1	21.1	68	12.2	2	4	248	0.00	29.424 
16:55	21.0	21.0	21.0	69	12.5	2	4	270	0.00	29.424 
17:00	21.0	21.0	21.0	69	12.5	1	3	270	0.00	29.433 
17:05	20.8	20.8	20.8	69	12.3	1	3	270	0.00	29.433 
17:10	20.8	20.8	20.8	70	12.6	1	3	248	0.00	29.433 
17:15	20.6	20.6	20.6	71	12.7	1	3	248	0.00	29.431 
17:20	20.5	20.5	20.5	72	12.9	1	3	248	0.00	29.431 
17:25	20.5	20.5	20.5	72	12.9	1	4	248	0.00	29.431 
17:30	20.3	20.3	20.3	72	12.7	1	3	248	0.00	29.434 
17:35	20.2	20.2	20.2	73	13.0	0	2	248	0.00	29.434 
17:40	20.2	20.2	20.2	73	13.0	1	3	248	0.00	29.434 
17:45	20.2	20.2	20.2	73	13.0	1	4	248	0.00	29.435 
17:50	20.2	20.2	20.2	74	13.3	1	2	248	0.00	29.435 
17:55	20.2	20.2	20.2	75	13.6	0	2	248	0.00	29.435 
18:00	20.0	20.0	20.0	76	13.7	1	4	248	0.00	29.437 
18:05	20.0	20.0	20.0	77	14.0	1	4	248	0.00	29.437 
18:10	20.0	20.0	20.0	77	14.0	1	5	248	0.00	29.437 
18:15	19.9	19.9	19.9	78	14.2	1	3	248	0.00	29.446 
18:20	19.9	19.9	19.9	80	14.7	1	5	248	0.00	29.446 
18:25	19.9	19.9	19.9	80	14.7	1	2	270	0.00	29.446 
18:30	19.7	19.7	19.7	81	14.8	1	3	248	0.00	29.449 
18:35	19.7	19.7	19.7	82	15.1	1	3	248	0.00	29.449 
18:40	19.5	19.5	19.5	82	14.9	1	3	248	0.00	29.449 
18:45	19.5	19.5	19.5	83	15.2	1	3	248	0.00	29.451 
18:50	19.5	19.5	19.5	83	15.2	1	2	248	0.00	29.451 
18:55	19.5	19.5	19.5	84	15.5	1	2	248	0.00	29.451 
19:00	19.2	19.2	19.2	84	15.2	2	4	338	0.00	29.454 
19:05	19.1	19.1	19.1	83	14.8	1	3	248	0.00	29.454 
19:10	19.1	19.1	19.1	83	14.8	2	5	248	0.00	29.454 
19:15	18.9	18.9	18.9	83	14.6	1	2	248	0.00	29.458 
19:20	18.9	18.9	18.9	84	14.9	1	3	248	0.00	29.458 
19:25	18.8	18.8	18.8	84	14.8	1	4	248	0.00	29.458 
19:30	18.8	18.8	18.8	84	14.8	1	3	270	0.00	29.464 
19:35	18.8	18.8	18.8	84	14.8	0	2	270	0.00	29.464 
19:40	18.8	18.8	18.8	84	14.8	1	2	270	0.00	29.464 
19:45	18.6	18.6	18.6	84	14.6	0	2	270	0.00	29.467 
19:50	18.4	18.4	18.4	84	14.4	0	2	270	0.00	29.467 
19:55	18.3	18.3	18.3	84	14.3	0	2	270	0.00	29.467 
20:00	18.3	18.3	18.3	84	14.3	1	3	248	0.00	29.469 
20:05	18.1	18.1	18.1	84	14.1	1	2	248	0.00	29.469 
20:10	18.1	18.1	18.1	84	14.1	0	2	248	0.00	29.469 
20:15	18.1	18.1	18.1	84	14.1	0	2	248	0.00	29.469 
20:20	18.1	18.1	18.1	84	14.1	0	2	248	0.00	29.469 
20:25	18.0	18.0	18.0	84	14.0	0	2	248	0.00	29.469 
20:30	18.0	18.0	18.0	84	14.0	0	2	248	0.00	29.468 
20:35	18.0	18.0	18.0	83	13.7	0	3	248	0.00	29.468 
20:40	18.0	18.0	18.0	83	13.7	0	2	248	0.00	29.468 
20:45	18.0	18.0	18.0	83	13.7	0	1	248	0.00	29.468 
20:50	17.8	17.8	17.8	83	13.5	0	1	248	0.00	29.468 
20:55	17.8	17.8	17.8	83	13.5	0	0	---	0.00	29.468 
21:00	17.8	17.8	17.8	83	13.5	0	1	248	0.00	29.468 
21:05	17.8	17.8	17.8	83	13.5	0	1	248	0.00	29.468 
21:10	18.0	18.0	18.0	83	13.7	0	1	248	0.00	29.468 
21:15	17.8	17.8	17.8	83	13.5	0	3	248	0.00	29.465 
21:20	18.0	18.0	18.0	83	13.7	0	1	248	0.00	29.465 
21:25	18.0	18.0	18.0	83	13.7	0	1	248	0.00	29.465 
21:30	18.0	18.0	18.0	83	13.7	0	2	248	0.00	29.465 
21:35	18.0	18.0	18.0	83	13.7	0	2	248	0.00	29.465 
21:40	18.0	18.0	18.0	83	13.7	0	1	248	0.00	29.465 
21:45	18.0	18.0	18.0	83	13.7	0	2	248	0.00	29.463 
21:50	18.0	18.0	18.0	83	13.7	0	2	248	0.00	29.463 
21:55	18.0	18.0	18.0	83	13.7	0	1	248	0.00	29.463 
22:00	17.8	17.8	17.8	84	13.8	0	1	248	0.00	29.463 
22:05	18.0	18.0	18.0	84	14.0	0	3	248	0.00	29.463 
22:10	18.0	18.0	18.0	84	14.0	0	3	248	0.00	29.463 
22:15	18.0	18.0	18.0	84	14.0	0	2	248	0.00	29.459 
22:20	18.0	18.0	18.0	84	14.0	0	2	248	0.00	29.459 
22:25	18.0	18.0	18.0	84	14.0	0	3	248	0.00	29.459 
22:30	18.0	18.0	18.0	84	14.0	0	2	248	0.00	29.454 
22:35	17.8	17.8	17.8	84	13.8	0	3	248	0.00	29.454 
22:40	17.7	17.7	17.7	84	13.7	1	3	248	0.00	29.454 
22:45	17.7	17.7	17.7	84	13.7	1	3	248	0.00	29.454 
22:50	17.7	17.7	17.7	84	13.7	1	5	248	0.00	29.454 
22:55	17.7	17.7	17.7	84	13.7	0	2	248	0.00	29.454 
23:00	17.7	17.7	17.7	84	13.7	0	2	248	0.00	29.454 
23:05	17.5	17.5	17.5	84	13.5	1	3	248	0.00	29.454 
23:10	17.5	17.5	17.5	84	13.5	0	3	248	0.00	29.454 
23:15	17.5	17.5	17.5	84	13.5	0	1	248	0.00	29.450 
23:20	17.5	17.5	17.5	84	13.5	0	2	248	0.00	29.450 
23:25	17.5	17.5	17.5	84	13.5	1	3	248	0.00	29.450 
23:30	17.3	17.3	17.3	84	13.3	1	2	248	0.00	29.449 
23:35	17.3	17.3	17.3	84	13.3	0	2	248	0.00	29.449 
23:40	17.2	17.2	17.2	84	13.2	1	3	270	0.00	29.449 
23:45	17.2	17.2	17.2	84	13.2	1	4	248	0.00	29.451 
23:50	17.2	17.2	17.2	84	13.2	1	4	248	0.00	29.451 
23:55	17.2	17.2	17.2	84	13.2	0	2	248	0.00	29.451 

CoCoRaHS
IN-AL-39
A2 Web Hosting
Creative Commons License
GoDaddy
search engine by freefind advanced

loaded 2018-11-20 14:19:30 • last modified 2010-11-18 10:43:29
Privacy PolicyDisclaimer
• wx.awcolley.com is powered by PmWiki v.2002016 •
• all content (unless otherwise noted) © 2018 A W Colley